createdAt,value
2022-08-23T00:01:10.955Z,97868.69
2022-08-23T00:03:39.808Z,97870.06
2022-08-23T00:06:16.670Z,97866.84
2022-08-23T00:08:44.836Z,97872.50
2022-08-23T00:11:14.984Z,97863.91
2022-08-23T00:13:47.935Z,97865.78
2022-08-23T00:16:14.862Z,97868.75
2022-08-23T00:18:41.612Z,97870.09
2022-08-23T00:21:15.329Z,97873.88
2022-08-23T00:23:41.658Z,97866.91
2022-08-23T00:26:08.168Z,97861.78
2022-08-23T00:28:34.529Z,97856.69
2022-08-23T00:31:00.908Z,97858.06
2022-08-23T00:33:29.386Z,97863.19
2022-08-23T00:35:55.818Z,97861.56
2022-08-23T00:38:34.272Z,97868.84
2022-08-23T00:41:04.120Z,97866.16
2022-08-23T00:43:30.708Z,97868.31
2022-08-23T00:46:00.689Z,97869.38
2022-08-23T00:48:27.138Z,97869.66
2022-08-23T00:50:57.839Z,97865.66
2022-08-23T00:53:28.421Z,97868.59
2022-08-23T00:55:54.791Z,97866.19
2022-08-23T00:58:23.082Z,97860.28
2022-08-23T01:00:51.573Z,97857.09
2022-08-23T01:03:20.546Z,97867.28
2022-08-23T01:05:47.195Z,97860.25
2022-08-23T01:08:25.067Z,97861.63
2022-08-23T01:10:53.986Z,97862.97
2022-08-23T01:13:23.726Z,97869.44
2022-08-23T01:15:51.379Z,97869.72
2022-08-23T01:18:17.927Z,97866.78
2022-08-23T01:20:54.667Z,97868.94
2022-08-23T01:23:25.611Z,97863.03
2022-08-23T01:25:52.070Z,97870.56
2022-08-23T01:28:22.490Z,97869.25
2022-08-23T01:30:53.140Z,97864.13
2022-08-23T01:33:19.562Z,97871.91
2022-08-23T01:35:47.418Z,97874.38
2022-08-23T01:38:15.174Z,97858.78
2022-08-23T01:40:52.933Z,97872.50
2022-08-23T01:43:20.346Z,97880.84
2022-08-23T01:45:50.573Z,97881.38
2022-08-23T01:49:08.127Z,97884.59
2022-08-23T01:51:09.950Z,97884.63
2022-08-23T01:53:42.989Z,97882.47
2022-08-23T01:56:13.612Z,97886.25
2022-08-23T01:58:43.750Z,97890.56
2022-08-23T02:01:10.443Z,97891.66
2022-08-23T02:04:07.121Z,97889.50
2022-08-23T02:06:24.668Z,97892.75
2022-08-23T02:08:57.265Z,97899.41
2022-08-23T02:11:23.847Z,97903.19
2022-08-23T02:13:50.449Z,97892.19
2022-08-23T02:16:19.042Z,97898.06
2022-08-23T02:18:50.367Z,97895.66
2022-08-23T02:21:16.960Z,97895.94
2022-08-23T02:23:45.169Z,97897.81
2022-08-23T02:26:11.541Z,97901.84
2022-08-23T02:28:37.949Z,97904.81
2022-08-23T02:31:08.855Z,97901.84
2022-08-23T02:33:42.923Z,97906.69
2022-08-23T02:36:09.472Z,97907.22
2022-08-23T02:38:36.080Z,97909.09
2022-08-23T02:41:03.943Z,97910.44
2022-08-23T02:43:40.836Z,97907.22
2022-08-23T02:46:09.596Z,97912.06
2022-08-23T02:48:35.944Z,97907.75
2022-08-23T02:51:03.943Z,97907.19
2022-08-23T02:53:30.358Z,97909.88
2022-08-23T02:56:17.092Z,97907.19
2022-08-23T02:58:54.165Z,97911.78
2022-08-23T03:01:42.301Z,97909.88
2022-08-23T03:04:12.767Z,97919.03
2022-08-23T03:06:44.039Z,97920.09
2022-08-23T03:09:42.825Z,97911.50
2022-08-23T03:12:02.600Z,97924.94
2022-08-23T03:14:43.540Z,97897.81
2022-08-23T03:17:10.410Z,97916.63
2022-08-23T03:19:46.340Z,97923.84
2022-08-23T03:22:12.702Z,97928.41
2022-08-23T03:24:39.052Z,97919.03
2022-08-23T03:29:45.922Z,97925.72
2022-08-23T03:32:12.325Z,97924.38
2022-08-23T03:35:29.034Z,97917.38
2022-08-23T03:37:32.966Z,97930.25
2022-08-23T03:39:59.462Z,97935.13
2022-08-23T03:42:30.828Z,97937.25
2022-08-23T03:45:02.689Z,97928.66
2022-08-23T03:47:33.169Z,97934.03
2022-08-23T03:50:02.119Z,97936.97
2022-08-23T03:52:28.659Z,97939.94
2022-08-23T03:54:59.358Z,97932.94
2022-08-23T03:57:32.534Z,97935.88
2022-08-23T03:59:59.031Z,97938.84
2022-08-23T04:02:27.910Z,97944.47
2022-08-23T04:05:07.852Z,97944.75
2022-08-23T04:07:36.733Z,97952.25
2022-08-23T04:10:11.914Z,97955.97
2022-08-23T04:12:40.614Z,97947.38
2022-08-23T04:15:07.153Z,97945.78
2022-08-23T04:17:54.528Z,97938.78
2022-08-23T04:20:20.884Z,97948.16
2022-08-23T04:22:59.125Z,97944.66
2022-08-23T04:25:34.443Z,97946.56
2022-08-23T04:28:05.386Z,97955.38
2022-08-23T04:30:32.086Z,97946.28
2022-08-23T04:33:02.764Z,97959.19
2022-08-23T04:35:38.828Z,97956.81
2022-08-23T04:38:18.401Z,97965.13
2022-08-23T04:40:55.636Z,97964.31
2022-08-23T04:43:22.131Z,97963.00
2022-08-23T04:45:52.062Z,97965.13
2022-08-23T04:48:22.412Z,97963.00
2022-08-23T04:50:49.762Z,97970.50
2022-08-23T04:53:20.493Z,97971.88
2022-08-23T04:55:49.370Z,97977.25
2022-08-23T04:58:15.827Z,97973.25
2022-08-23T05:00:50.816Z,97974.56
2022-08-23T05:03:17.805Z,97974.31
2022-08-23T05:05:44.184Z,97977.78
2022-08-23T05:08:14.436Z,97987.16
2022-08-23T05:10:44.809Z,97980.22
2022-08-23T05:13:12.453Z,97988.53
2022-08-23T05:18:30.423Z,97980.75
2022-08-23T05:21:02.887Z,97981.56
2022-08-23T05:23:31.959Z,97988.00
2022-08-23T05:26:05.229Z,97978.88
2022-08-23T05:28:31.669Z,97983.16
2022-08-23T05:30:58.192Z,97987.22
2022-08-23T05:33:27.041Z,97986.41
2022-08-23T05:35:53.734Z,97992.03
2022-08-23T05:38:20.923Z,97995.50
2022-08-23T05:40:50.272Z,97991.78
2022-08-23T05:43:21.557Z,98002.50
2022-08-23T05:45:48.077Z,97999.81
2022-08-23T05:48:15.023Z,98004.09
2022-08-23T05:50:44.643Z,98002.22
2022-08-23T05:53:11.054Z,98014.34
2022-08-23T05:58:21.715Z,98022.66
2022-08-23T06:00:48.169Z,98021.06
2022-08-23T06:03:14.537Z,98029.13
2022-08-23T06:05:42.189Z,98019.72
2022-08-23T06:08:08.570Z,98021.66
2022-08-23T06:10:39.271Z,98017.34
2022-08-23T06:13:08.129Z,98011.19
2022-08-23T06:15:34.435Z,98011.19
2022-08-23T06:18:01.024Z,98011.44
2022-08-23T06:20:27.499Z,98006.88
2022-08-23T06:22:55.316Z,98006.88
2022-08-23T06:25:21.675Z,98018.72
2022-08-23T06:27:53.081Z,98010.38
2022-08-23T06:30:19.731Z,98016.53
2022-08-23T06:32:47.228Z,98020.59
2022-08-23T06:35:40.032Z,98021.66
2022-08-23T06:38:11.370Z,98022.72
2022-08-23T06:40:42.245Z,98019.22
2022-08-23T06:43:09.605Z,98022.97
2022-08-23T06:45:36.167Z,98024.50
2022-08-23T06:48:10.004Z,98031.41
2022-08-23T06:50:36.396Z,98020.59
2022-08-23T06:53:14.758Z,98016.94
2022-08-23T06:55:45.837Z,98016.00
2022-08-23T06:58:13.287Z,98018.06
2022-08-23T07:01:03.288Z,98009.56
2022-08-23T07:03:36.644Z,98015.63
2022-08-23T07:09:25.930Z,98014.72
2022-08-23T07:11:39.764Z,98014.88
2022-08-23T07:14:08.219Z,98010.97
2022-08-23T07:16:34.651Z,98005.34
2022-08-23T07:19:01.171Z,98004.56
2022-08-23T07:21:31.013Z,98016.13
2022-08-23T07:23:57.396Z,98021.56
2022-08-23T07:26:26.810Z,98024.44
2022-08-23T07:28:55.128Z,98033.31
2022-08-23T07:31:22.970Z,98026.28
2022-08-23T07:33:49.528Z,98034.41
2022-08-23T07:36:22.445Z,98040.34
2022-08-23T07:38:51.364Z,98043.53
2022-08-23T07:41:25.336Z,98046.53
2022-08-23T07:43:51.773Z,98048.22
2022-08-23T07:46:19.637Z,98054.47
2022-08-23T07:48:54.921Z,98041.28
2022-08-23T07:51:21.564Z,98040.50
2022-08-23T07:53:47.921Z,98042.38
2022-08-23T07:56:15.310Z,98039.28
2022-08-23T07:58:41.930Z,98040.00
2022-08-23T08:01:14.291Z,98037.72
2022-08-23T08:03:40.923Z,98035.88
2022-08-23T08:06:07.233Z,98037.81
2022-08-23T08:08:35.331Z,98051.13
2022-08-23T08:11:01.870Z,98061.34
2022-08-23T08:13:29.530Z,98074.97
2022-08-23T08:15:56.066Z,98078.16
2022-08-23T08:18:22.927Z,98096.00
2022-08-23T08:21:09.455Z,98109.56
2022-08-23T08:23:35.898Z,98112.34
2022-08-23T08:26:08.318Z,98122.47
2022-08-23T08:28:37.031Z,98125.91
2022-08-23T08:31:03.355Z,98127.34
2022-08-23T08:33:30.837Z,98128.34
2022-08-23T08:36:04.935Z,98128.19
2022-08-23T08:38:38.966Z,98138.00
2022-08-23T08:41:15.039Z,98142.97
2022-08-23T08:43:44.353Z,98142.00
2022-08-23T08:46:10.671Z,98138.47
2022-08-23T08:48:38.271Z,98135.00
2022-08-23T08:51:16.474Z,98114.13
2022-08-23T08:53:45.449Z,98106.78
2022-08-23T08:56:12.401Z,98093.16
2022-08-23T08:58:43.129Z,98080.00
2022-08-23T09:01:10.760Z,98060.97
2022-08-23T09:03:37.314Z,98034.56
2022-08-23T09:06:10.135Z,97996.34
2022-08-23T09:08:40.323Z,97978.06
2022-08-23T09:11:07.042Z,97984.66
2022-08-23T09:13:33.384Z,97980.56
2022-08-23T09:16:02.529Z,97985.13
2022-08-23T09:18:29.299Z,97976.78
2022-08-23T09:20:55.747Z,97991.03
2022-08-23T09:23:22.059Z,97988.47
2022-08-23T09:25:48.390Z,97982.09
2022-08-23T09:28:15.131Z,97984.28
2022-08-23T09:30:41.620Z,97978.88
2022-08-23T09:33:12.923Z,97992.94
2022-08-23T09:35:39.320Z,97987.50
2022-08-23T09:38:07.680Z,97987.50
2022-08-23T09:40:41.370Z,97985.09
2022-08-23T09:43:12.210Z,97981.09
2022-08-23T09:45:38.523Z,97984.94
2022-08-23T09:48:04.905Z,97983.63
2022-08-23T09:50:31.844Z,97978.50
2022-08-23T09:52:58.587Z,97970.19
2022-08-23T09:55:25.145Z,97971.00
2022-08-23T09:57:51.916Z,97979.13
2022-08-23T10:00:20.575Z,97972.09
2022-08-23T10:02:47.947Z,97964.28
2022-08-23T10:05:14.766Z,97972.72
2022-08-23T10:07:42.544Z,97966.50
2022-08-23T10:10:09.546Z,97960.25
2022-08-23T10:12:37.439Z,97966.50
2022-08-23T10:15:03.795Z,97964.91
2022-08-23T10:17:32.225Z,97960.88
2022-08-23T10:20:09.568Z,97962.00
2022-08-23T10:22:43.429Z,97965.50
2022-08-23T10:25:12.007Z,97962.00
2022-08-23T10:27:38.359Z,97960.06
2022-08-23T10:30:15.516Z,97962.78
2022-08-23T10:32:41.875Z,97952.25
2022-08-23T10:37:52.353Z,97959.91
2022-08-23T10:40:19.176Z,97959.09
2022-08-23T10:42:45.527Z,97961.00
2022-08-23T10:45:11.884Z,97959.09
2022-08-23T10:47:38.209Z,97949.84
2022-08-23T10:50:04.532Z,97953.06
2022-08-23T10:52:30.891Z,97951.47
2022-08-23T10:54:57.355Z,97946.03
2022-08-23T10:57:23.816Z,97945.22
2022-08-23T10:59:50.169Z,97943.00
2022-08-23T11:02:19.656Z,97943.00
2022-08-23T11:04:45.983Z,97941.59
2022-08-23T11:07:12.265Z,97934.56
2022-08-23T11:09:39.535Z,97937.78
2022-08-23T11:12:07.058Z,97929.31
2022-08-23T11:14:39.386Z,97940.66
2022-08-23T11:17:05.670Z,97944.16
2022-08-23T11:19:32.004Z,97937.13
2022-08-23T11:21:58.411Z,97940.97
2022-08-23T11:24:24.745Z,97934.75
2022-08-23T11:26:53.013Z,97932.84
2022-08-23T11:29:19.544Z,97932.84
2022-08-23T11:31:45.883Z,97927.09
2022-08-23T11:34:12.224Z,97926.28
2022-08-23T11:36:38.636Z,97935.25
2022-08-23T11:39:05.381Z,97927.88
2022-08-23T11:41:31.671Z,97932.22
2022-08-23T11:43:58.017Z,97924.06
2022-08-23T11:46:24.348Z,97922.16
2022-08-23T11:48:50.734Z,97928.69
2022-08-23T11:51:17.406Z,97923.25
2022-08-23T11:53:43.717Z,97917.03
2022-08-23T11:56:10.212Z,97916.25
2022-08-23T11:58:36.571Z,97917.84
2022-08-23T12:01:02.924Z,97916.25
2022-08-23T12:03:29.414Z,97923.25
2022-08-23T12:05:56.410Z,97916.75
2022-08-23T12:08:22.823Z,97921.38
2022-08-23T12:10:49.442Z,97918.66
2022-08-23T12:13:20.088Z,97924.88
2022-08-23T12:15:49.757Z,97918.66
2022-08-23T12:18:19.324Z,97915.63
2022-08-23T12:20:50.788Z,97917.22
2022-08-23T12:23:17.336Z,97918.84
2022-08-23T12:25:43.664Z,97911.50
2022-08-23T12:28:14.434Z,97921.22
2022-08-23T12:30:44.225Z,97913.91
2022-08-23T12:33:15.295Z,97910.06
2022-08-23T12:35:41.946Z,97908.16
2022-08-23T12:38:09.590Z,97906.53
2022-08-23T12:40:36.049Z,97901.91
2022-08-23T12:43:08.050Z,97910.06
2022-08-23T12:45:34.629Z,97914.41
2022-08-23T12:48:00.966Z,97907.34
2022-08-23T12:50:33.123Z,97907.34
2022-08-23T12:53:01.059Z,97903.53
2022-08-23T12:55:28.800Z,97903.53
2022-08-23T12:57:59.529Z,97902.91
2022-08-23T13:00:28.281Z,97902.91
2022-08-23T13:02:54.752Z,97907.53
2022-08-23T13:05:23.800Z,97904.81
2022-08-23T13:07:50.902Z,97901.28
2022-08-23T13:10:17.303Z,97893.16
2022-08-23T13:12:43.794Z,97890.44
2022-08-23T13:15:10.275Z,97894.28
2022-08-23T13:17:40.827Z,97897.81
2022-08-23T13:20:07.233Z,97895.88
2022-08-23T13:22:33.801Z,97890.44
2022-08-23T13:25:26.742Z,97895.09
2022-08-23T13:27:50.654Z,97886.13
2022-08-23T13:30:22.414Z,97897.00
2022-08-23T13:32:48.716Z,97891.88
2022-08-23T13:35:15.191Z,97887.25
2022-08-23T13:37:41.557Z,97889.16
2022-08-23T13:40:08.341Z,97886.44
2022-08-23T13:42:34.719Z,97882.94
2022-08-23T13:45:01.123Z,97881.84
2022-08-23T13:47:27.795Z,97875.59
2022-08-23T13:49:54.192Z,97882.63
2022-08-23T13:55:07.263Z,97874.47
2022-08-23T13:57:33.595Z,97873.69
2022-08-23T14:00:00.097Z,97873.69
2022-08-23T14:02:26.544Z,97885.00
2022-08-23T14:04:55.234Z,97878.81
2022-08-23T14:07:24.025Z,97883.41
2022-08-23T14:09:54.869Z,97870.97
2022-08-23T14:12:21.501Z,97870.97
2022-08-23T14:14:47.932Z,97876.41
2022-08-23T14:17:16.785Z,97868.28
2022-08-23T14:22:29.764Z,97866.16
2022-08-23T14:25:01.199Z,97870.00
2022-08-23T14:27:27.660Z,97859.97
2022-08-23T14:29:54.327Z,97865.38
2022-08-23T14:32:20.736Z,97864.56
2022-08-23T14:34:47.396Z,97870.00
2022-08-23T14:38:00.497Z,97872.72
2022-08-23T14:40:00.428Z,97872.41
2022-08-23T14:42:26.770Z,97866.16
2022-08-23T14:44:53.108Z,97868.88
2022-08-23T14:47:19.453Z,97860.56
2022-08-23T14:49:50.862Z,97858.66
2022-08-23T14:52:19.671Z,97859.78
2022-08-23T14:54:46.216Z,97858.16
2022-08-23T14:57:12.546Z,97858.16
2022-08-23T14:59:41.243Z,97863.09
2022-08-23T15:02:09.068Z,97864.22
2022-08-23T15:04:35.706Z,97864.53
2022-08-23T15:07:19.081Z,97868.34
2022-08-23T15:09:46.600Z,97879.50
2022-08-23T15:14:59.469Z,97869.78
2022-08-23T15:17:30.952Z,97867.06
2022-08-23T15:19:57.538Z,97865.47
2022-08-23T15:22:24.242Z,97863.88
2022-08-23T15:24:56.761Z,97862.28
2022-08-23T15:27:23.040Z,97864.50
2022-08-23T15:29:49.351Z,97860.97
2022-08-23T15:32:29.703Z,97873.72
2022-08-23T15:34:59.515Z,97872.16
2022-08-23T15:37:26.411Z,97874.84
2022-08-23T15:39:53.612Z,97877.88
2022-08-23T15:42:23.508Z,97868.13
2022-08-23T15:44:49.872Z,97877.38
2022-08-23T15:47:16.387Z,97876.56
2022-08-23T15:49:42.726Z,97873.88
2022-08-23T15:52:10.591Z,97870.34
2022-08-23T15:54:37.154Z,97880.41
2022-08-23T15:57:03.846Z,97884.22
2022-08-23T15:59:33.859Z,97882.63
2022-08-23T16:02:02.255Z,97888.06
2022-08-23T16:04:38.111Z,97880.22
2022-08-23T16:07:06.813Z,97888.38
2022-08-23T16:09:33.550Z,97878.31
2022-08-23T16:12:00.495Z,97881.31
2022-08-23T16:14:26.806Z,97882.13
2022-08-23T16:16:59.351Z,97892.19
2022-08-23T16:19:28.811Z,97887.06
2022-08-23T16:21:55.665Z,97880.84
2022-08-23T16:24:24.542Z,97873.00
2022-08-23T16:26:51.253Z,97885.78
2022-08-23T16:29:17.603Z,97876.84
2022-08-23T16:31:44.552Z,97876.34
2022-08-23T16:34:10.914Z,97881.78
2022-08-23T16:36:37.318Z,97882.88
2022-08-23T16:39:03.788Z,97883.16
2022-08-23T16:41:37.246Z,97885.09
2022-08-23T16:44:03.699Z,97882.69
2022-08-23T16:46:30.065Z,97890.00
2022-08-23T16:48:56.401Z,97887.28
2022-08-23T16:51:22.977Z,97890.31
2022-08-23T16:54:01.814Z,97893.34
2022-08-23T16:56:29.759Z,97882.81
2022-08-23T16:58:59.178Z,97891.22
2022-08-23T17:01:25.533Z,97892.34
2022-08-23T17:03:52.267Z,97889.97
2022-08-23T17:06:18.561Z,97893.75
2022-08-23T17:08:45.170Z,97892.16
2022-08-23T17:11:11.633Z,97891.34
2022-08-23T17:13:40.534Z,97891.69
2022-08-23T17:16:07.490Z,97904.72
2022-08-23T17:18:36.694Z,97893.09
2022-08-23T17:21:03.162Z,97898.81
2022-08-23T17:23:29.792Z,97897.22
2022-08-23T17:25:56.432Z,97903.75
2022-08-23T17:28:25.637Z,97900.56
2022-08-23T17:30:52.056Z,97906.28
2022-08-23T17:33:18.407Z,97907.38
2022-08-23T17:35:44.795Z,97909.59
2022-08-23T17:38:11.109Z,97909.91
2022-08-23T17:40:37.569Z,97913.72
2022-08-23T17:43:07.074Z,97905.91
2022-08-23T17:45:34.517Z,97912.72
2022-08-23T17:48:03.931Z,97912.22
2022-08-23T17:50:32.999Z,97914.16
2022-08-23T17:52:59.412Z,97921.78
2022-08-23T17:55:29.987Z,97915.88
2022-08-23T17:58:03.949Z,97915.38
2022-08-23T18:00:30.769Z,97924.63
2022-08-23T18:02:57.126Z,97916.78
2022-08-23T18:05:23.400Z,97926.03
2022-08-23T18:07:49.923Z,97915.00
2022-08-23T18:10:19.695Z,97924.25
2022-08-23T18:12:46.311Z,97926.44
2022-08-23T18:15:12.647Z,97927.84
2022-08-23T18:17:39.048Z,97938.69
2022-08-23T18:20:14.617Z,97936.28
2022-08-23T18:22:41.236Z,97938.47
2022-08-23T18:25:07.641Z,97944.50
2022-08-23T18:27:33.968Z,97946.69
2022-08-23T18:30:00.471Z,97943.50
2022-08-23T18:32:26.744Z,97951.13
2022-08-23T18:34:53.158Z,97950.13
2022-08-23T18:37:19.447Z,97959.97
2022-08-23T18:39:59.797Z,97950.31
2022-08-23T18:42:26.325Z,97958.56
2022-08-23T18:44:52.792Z,97970.00
2022-08-23T18:47:20.341Z,97966.59
2022-08-23T18:49:46.753Z,97962.59
2022-08-23T18:52:15.641Z,97961.91
2022-08-23T18:54:44.383Z,97966.81
2022-08-23T18:57:15.696Z,97965.00
2022-08-23T18:59:42.772Z,97964.81
2022-08-23T19:02:11.688Z,97966.50
2022-08-23T19:04:40.688Z,97968.97
2022-08-23T19:07:07.225Z,97975.00
2022-08-23T19:09:33.715Z,97975.56
2022-08-23T19:12:01.307Z,97977.28
2022-08-23T19:14:28.888Z,97983.28
2022-08-23T19:17:01.291Z,97990.91
2022-08-23T19:19:29.039Z,97988.78
2022-08-23T19:21:57.806Z,97994.78
2022-08-23T19:24:24.260Z,97993.78
2022-08-23T19:26:58.239Z,97995.97
2022-08-23T19:29:26.066Z,98004.19
2022-08-23T19:31:53.837Z,98004.78
2022-08-23T19:34:20.341Z,97999.97
2022-08-23T19:36:49.321Z,98001.34
2022-08-23T19:39:23.392Z,98008.16
2022-08-23T19:41:49.849Z,98008.75
2022-08-23T19:44:17.905Z,98017.44
2022-08-23T19:46:45.698Z,98014.53
2022-08-23T19:49:12.355Z,98021.34
2022-08-23T19:51:38.686Z,98035.13
2022-08-23T19:54:06.961Z,98029.25
2022-08-23T19:56:38.270Z,98049.25
2022-08-23T19:59:11.015Z,98039.00
2022-08-23T20:01:37.411Z,98050.91
2022-08-23T20:04:03.811Z,98051.50
2022-08-23T20:06:31.438Z,98055.59
2022-08-23T20:08:57.747Z,98048.88
2022-08-23T20:11:24.423Z,98062.69
2022-08-23T20:13:50.915Z,98065.97
2022-08-23T20:16:17.300Z,98069.75
2022-08-23T20:18:45.050Z,98071.47
2022-08-23T20:21:11.371Z,98077.13
2022-08-23T20:23:40.138Z,98077.41
2022-08-23T20:26:08.283Z,98075.31
2022-08-23T20:28:35.179Z,98079.38
2022-08-23T20:31:01.550Z,98081.59
2022-08-23T20:33:27.897Z,98078.38
2022-08-23T20:35:54.253Z,98075.47
2022-08-23T20:38:33.027Z,98080.34
2022-08-23T20:41:00.120Z,98079.31
2022-08-23T20:43:26.497Z,98083.13
2022-08-23T20:45:52.861Z,98078.31
2022-08-23T20:48:19.169Z,98080.47
2022-08-23T20:50:45.602Z,98079.16
2022-08-23T20:53:12.989Z,98077.84
2022-08-23T20:55:39.514Z,98073.00
2022-08-23T20:58:05.889Z,98070.59
2022-08-23T21:00:32.533Z,98080.09
2022-08-23T21:02:58.920Z,98073.38
2022-08-23T21:05:26.636Z,98079.88
2022-08-23T21:07:53.089Z,98077.69
2022-08-23T21:10:19.492Z,98078.28
2022-08-23T21:12:45.772Z,98084.25
2022-08-23T21:15:13.333Z,98088.03
2022-08-23T21:17:39.664Z,98085.94
2022-08-23T21:20:07.902Z,98089.22
2022-08-23T21:22:34.431Z,98091.38
2022-08-23T21:25:03.665Z,98088.97
2022-08-23T21:27:30.331Z,98089.56
2022-08-23T21:29:56.694Z,98086.34
2022-08-23T21:32:23.197Z,98078.53
2022-08-23T21:34:49.511Z,98086.09
2022-08-23T21:37:15.894Z,98082.06
2022-08-23T21:39:42.424Z,98083.19
2022-08-23T21:42:15.387Z,98081.84
2022-08-23T21:44:41.933Z,98082.13
2022-08-23T21:47:08.255Z,98076.22
2022-08-23T21:49:38.285Z,98081.38
2022-08-23T21:52:04.789Z,98084.38
2022-08-23T21:54:31.301Z,98083.84
2022-08-23T21:56:58.890Z,98081.44
2022-08-23T21:59:25.456Z,98086.03
2022-08-23T22:01:52.696Z,98096.31
2022-08-23T22:04:19.006Z,98094.69
2022-08-23T22:06:45.378Z,98097.38
2022-08-23T22:09:15.485Z,98102.56
2022-08-23T22:11:41.856Z,98105.00
2022-08-23T22:14:08.219Z,98097.50
2022-08-23T22:16:34.570Z,98089.47
2022-08-23T22:19:01.093Z,98094.28
2022-08-23T22:21:27.409Z,98094.88
2022-08-23T22:23:57.752Z,98103.25
2022-08-23T22:26:26.431Z,98094.94
2022-08-23T22:28:54.799Z,98096.28
2022-08-23T22:31:21.322Z,98098.44
2022-08-23T22:33:47.696Z,98107.13
2022-08-23T22:36:14.316Z,98110.88
2022-08-23T22:38:40.802Z,98107.69
2022-08-23T22:41:07.280Z,98109.03
2022-08-23T22:43:33.614Z,98116.59
2022-08-23T22:46:02.939Z,98113.38
2022-08-23T22:48:29.736Z,98119.34
2022-08-23T22:50:58.506Z,98115.59
2022-08-23T22:53:24.785Z,98112.66
2022-08-23T22:55:51.083Z,98113.22
2022-08-23T22:58:17.353Z,98108.41
2022-08-23T23:00:43.734Z,98109.75
2022-08-23T23:03:10.604Z,98110.31
2022-08-23T23:05:37.486Z,98112.78
2022-08-23T23:08:04.036Z,98111.44
2022-08-23T23:10:30.709Z,98107.72
2022-08-23T23:12:57.040Z,98116.38
2022-08-23T23:15:23.468Z,98108.53
2022-08-23T23:17:49.786Z,98110.97
2022-08-23T23:20:16.233Z,98116.91
2022-08-23T23:22:42.570Z,98119.34
2022-08-23T23:25:09.147Z,98111.03
2022-08-23T23:27:35.505Z,98125.88
2022-08-23T23:30:02.082Z,98119.13
2022-08-23T23:32:28.823Z,98124.28
2022-08-23T23:34:55.193Z,98114.88
2022-08-23T23:37:27.073Z,98119.19
2022-08-23T23:39:53.496Z,98125.16
2022-08-23T23:42:19.775Z,98124.09
2022-08-23T23:44:47.475Z,98122.75
2022-08-23T23:47:13.895Z,98120.88
2022-08-23T23:49:41.358Z,98116.84
2022-08-23T23:52:09.828Z,98121.97
2022-08-23T23:54:36.227Z,98110.97
2022-08-23T23:57:02.623Z,98131.72
2022-08-23T23:59:28.946Z,98125.25
